sensor_id;sensor_type;location;lat;lon;timestamp;temperature;humidity
4487;DHT22;2256;48.740;9.106;2023-02-19T00:00:58;10.10;99.90
4487;DHT22;2256;48.740;9.106;2023-02-19T00:03:25;10.20;99.90
4487;DHT22;2256;48.740;9.106;2023-02-19T00:05:52;10.20;99.90
4487;DHT22;2256;48.740;9.106;2023-02-19T00:08:19;10.20;99.90
4487;DHT22;2256;48.740;9.106;2023-02-19T00:10:46;10.20;99.90
4487;DHT22;2256;48.740;9.106;2023-02-19T00:13:14;10.20;99.90
4487;DHT22;2256;48.740;9.106;2023-02-19T00:15:40;10.20;99.90
4487;DHT22;2256;48.740;9.106;2023-02-19T00:18:07;10.30;99.90
4487;DHT22;2256;48.740;9.106;2023-02-19T00:20:34;10.20;99.90
4487;DHT22;2256;48.740;9.106;2023-02-19T00:23:00;10.20;99.90
4487;DHT22;2256;48.740;9.106;2023-02-19T00:25:28;10.30;99.90
4487;DHT22;2256;48.740;9.106;2023-02-19T00:27:54;10.20;99.90
4487;DHT22;2256;48.740;9.106;2023-02-19T00:30:22;10.10;99.90
4487;DHT22;2256;48.740;9.106;2023-02-19T00:32:49;10.10;99.90
4487;DHT22;2256;48.740;9.106;2023-02-19T00:35:16;10.10;99.90
4487;DHT22;2256;48.740;9.106;2023-02-19T00:37:43;10.20;99.90
4487;DHT22;2256;48.740;9.106;2023-02-19T00:40:10;10.20;99.90
4487;DHT22;2256;48.740;9.106;2023-02-19T00:42:37;10.20;99.90
4487;DHT22;2256;48.740;9.106;2023-02-19T00:45:04;10.20;99.90
4487;DHT22;2256;48.740;9.106;2023-02-19T00:47:32;10.20;99.90
4487;DHT22;2256;48.740;9.106;2023-02-19T00:49:59;10.10;99.90
4487;DHT22;2256;48.740;9.106;2023-02-19T00:52:26;10.10;99.90
4487;DHT22;2256;48.740;9.106;2023-02-19T00:54:52;10.00;99.90
4487;DHT22;2256;48.740;9.106;2023-02-19T00:57:19;10.10;99.90
4487;DHT22;2256;48.740;9.106;2023-02-19T00:59:46;10.00;99.90
4487;DHT22;2256;48.740;9.106;2023-02-19T01:02:13;10.00;99.90
4487;DHT22;2256;48.740;9.106;2023-02-19T01:04:41;9.90;99.90
4487;DHT22;2256;48.740;9.106;2023-02-19T01:07:08;10.00;99.90
4487;DHT22;2256;48.740;9.106;2023-02-19T01:09:35;10.00;99.90
4487;DHT22;2256;48.740;9.106;2023-02-19T01:12:02;10.00;99.90
4487;DHT22;2256;48.740;9.106;2023-02-19T01:14:29;9.90;99.90
4487;DHT22;2256;48.740;9.106;2023-02-19T01:16:56;9.90;99.90
4487;DHT22;2256;48.740;9.106;2023-02-19T01:19:23;9.80;99.90
4487;DHT22;2256;48.740;9.106;2023-02-19T01:21:51;9.80;99.90
4487;DHT22;2256;48.740;9.106;2023-02-19T01:24:23;9.80;99.90
4487;DHT22;2256;48.740;9.106;2023-02-19T01:26:50;9.90;99.90
4487;DHT22;2256;48.740;9.106;2023-02-19T01:29:17;10.00;99.90
4487;DHT22;2256;48.740;9.106;2023-02-19T01:31:43;9.90;99.90
4487;DHT22;2256;48.740;9.106;2023-02-19T01:34:10;9.90;99.90
4487;DHT22;2256;48.740;9.106;2023-02-19T01:36:41;9.90;99.90
4487;DHT22;2256;48.740;9.106;2023-02-19T01:39:09;9.90;99.90
4487;DHT22;2256;48.740;9.106;2023-02-19T01:41:38;10.00;99.90
4487;DHT22;2256;48.740;9.106;2023-02-19T01:46:49;9.80;99.90
4487;DHT22;2256;48.740;9.106;2023-02-19T01:49:22;9.90;99.90
4487;DHT22;2256;48.740;9.106;2023-02-19T01:51:54;9.80;99.90
4487;DHT22;2256;48.740;9.106;2023-02-19T01:54:28;9.70;99.90
4487;DHT22;2256;48.740;9.106;2023-02-19T01:57:01;9.80;99.90
4487;DHT22;2256;48.740;9.106;2023-02-19T01:59:31;9.80;99.90
4487;DHT22;2256;48.740;9.106;2023-02-19T02:01:59;9.80;99.90
4487;DHT22;2256;48.740;9.106;2023-02-19T02:04:26;9.80;99.90
4487;DHT22;2256;48.740;9.106;2023-02-19T02:06:56;9.80;99.90
4487;DHT22;2256;48.740;9.106;2023-02-19T02:09:28;9.70;99.90
4487;DHT22;2256;48.740;9.106;2023-02-19T02:12:13;9.80;99.90
4487;DHT22;2256;48.740;9.106;2023-02-19T02:14:42;9.80;99.90
4487;DHT22;2256;48.740;9.106;2023-02-19T02:17:14;9.80;99.90
4487;DHT22;2256;48.740;9.106;2023-02-19T02:20:02;9.80;99.90
4487;DHT22;2256;48.740;9.106;2023-02-19T02:22:36;9.80;99.90
4487;DHT22;2256;48.740;9.106;2023-02-19T02:25:35;9.80;99.90
4487;DHT22;2256;48.740;9.106;2023-02-19T02:28:20;9.70;99.90
4487;DHT22;2256;48.740;9.106;2023-02-19T02:30:52;9.70;99.90
4487;DHT22;2256;48.740;9.106;2023-02-19T02:33:25;9.60;99.90
4487;DHT22;2256;48.740;9.106;2023-02-19T02:35:58;9.60;99.90
4487;DHT22;2256;48.740;9.106;2023-02-19T02:38:28;9.50;99.90
4487;DHT22;2256;48.740;9.106;2023-02-19T02:40:56;9.50;99.90
4487;DHT22;2256;48.740;9.106;2023-02-19T02:43:24;9.50;99.90
4487;DHT22;2256;48.740;9.106;2023-02-19T02:45:52;9.50;99.90
4487;DHT22;2256;48.740;9.106;2023-02-19T02:48:31;9.50;99.90
4487;DHT22;2256;48.740;9.106;2023-02-19T02:51:01;9.50;99.90
4487;DHT22;2256;48.740;9.106;2023-02-19T02:53:33;9.40;99.90
4487;DHT22;2256;48.740;9.106;2023-02-19T02:56:20;9.40;99.90
4487;DHT22;2256;48.740;9.106;2023-02-19T02:58:48;9.40;99.90
4487;DHT22;2256;48.740;9.106;2023-02-19T03:01:20;9.40;99.90
4487;DHT22;2256;48.740;9.106;2023-02-19T03:04:09;9.30;99.90
4487;DHT22;2256;48.740;9.106;2023-02-19T03:06:38;9.40;99.90
4487;DHT22;2256;48.740;9.106;2023-02-19T03:09:08;9.40;99.90
4487;DHT22;2256;48.740;9.106;2023-02-19T03:11:38;9.40;99.90
4487;DHT22;2256;48.740;9.106;2023-02-19T03:14:26;9.40;99.90
4487;DHT22;2256;48.740;9.106;2023-02-19T03:17:19;9.50;99.90
4487;DHT22;2256;48.740;9.106;2023-02-19T03:20:09;9.40;99.90
4487;DHT22;2256;48.740;9.106;2023-02-19T03:22:37;9.40;99.90
4487;DHT22;2256;48.740;9.106;2023-02-19T03:25:09;9.40;99.90
4487;DHT22;2256;48.740;9.106;2023-02-19T03:27:57;9.30;99.90
4487;DHT22;2256;48.740;9.106;2023-02-19T03:30:28;9.30;99.90
4487;DHT22;2256;48.740;9.106;2023-02-19T03:33:00;9.20;99.90
4487;DHT22;2256;48.740;9.106;2023-02-19T03:35:35;9.10;99.90
4487;DHT22;2256;48.740;9.106;2023-02-19T03:38:08;9.00;99.90
4487;DHT22;2256;48.740;9.106;2023-02-19T03:40:43;9.00;99.90
4487;DHT22;2256;48.740;9.106;2023-02-19T03:43:18;9.00;99.90
4487;DHT22;2256;48.740;9.106;2023-02-19T03:45:51;8.90;99.90
4487;DHT22;2256;48.740;9.106;2023-02-19T03:48:27;8.90;99.90
4487;DHT22;2256;48.740;9.106;2023-02-19T03:51:08;9.00;99.90
4487;DHT22;2256;48.740;9.106;2023-02-19T03:53:46;8.90;99.90
4487;DHT22;2256;48.740;9.106;2023-02-19T03:56:18;8.90;99.90
4487;DHT22;2256;48.740;9.106;2023-02-19T03:58:52;8.90;99.90
4487;DHT22;2256;48.740;9.106;2023-02-19T04:01:25;8.90;99.90
4487;DHT22;2256;48.740;9.106;2023-02-19T04:03:58;8.70;99.90
4487;DHT22;2256;48.740;9.106;2023-02-19T04:06:28;8.70;99.90
4487;DHT22;2256;48.740;9.106;2023-02-19T04:08:57;8.70;99.90
4487;DHT22;2256;48.740;9.106;2023-02-19T04:11:26;8.70;99.90
4487;DHT22;2256;48.740;9.106;2023-02-19T04:13:57;8.60;99.90
4487;DHT22;2256;48.740;9.106;2023-02-19T04:16:27;8.60;99.90
4487;DHT22;2256;48.740;9.106;2023-02-19T04:18:58;8.70;99.90
4487;DHT22;2256;48.740;9.106;2023-02-19T04:21:27;8.70;99.90
4487;DHT22;2256;48.740;9.106;2023-02-19T04:23:59;8.70;99.90
4487;DHT22;2256;48.740;9.106;2023-02-19T04:26:28;8.80;99.90
4487;DHT22;2256;48.740;9.106;2023-02-19T04:28:55;8.80;99.90
4487;DHT22;2256;48.740;9.106;2023-02-19T04:31:22;8.70;99.90
4487;DHT22;2256;48.740;9.106;2023-02-19T04:33:50;8.60;99.90
4487;DHT22;2256;48.740;9.106;2023-02-19T04:36:18;8.70;99.90
4487;DHT22;2256;48.740;9.106;2023-02-19T04:38:44;8.70;99.90
4487;DHT22;2256;48.740;9.106;2023-02-19T04:41:11;8.70;99.90
4487;DHT22;2256;48.740;9.106;2023-02-19T04:43:38;8.60;99.90
4487;DHT22;2256;48.740;9.106;2023-02-19T04:46:05;8.60;99.90
4487;DHT22;2256;48.740;9.106;2023-02-19T04:48:31;8.80;99.90
4487;DHT22;2256;48.740;9.106;2023-02-19T04:50:58;8.80;99.90
4487;DHT22;2256;48.740;9.106;2023-02-19T04:53:26;8.80;99.90
4487;DHT22;2256;48.740;9.106;2023-02-19T04:55:53;8.80;99.90
4487;DHT22;2256;48.740;9.106;2023-02-19T04:58:20;8.80;99.90
4487;DHT22;2256;48.740;9.106;2023-02-19T05:00:50;8.80;99.90
4487;DHT22;2256;48.740;9.106;2023-02-19T05:03:17;8.80;99.90
4487;DHT22;2256;48.740;9.106;2023-02-19T05:05:44;8.80;99.90
4487;DHT22;2256;48.740;9.106;2023-02-19T05:08:11;8.80;99.90
4487;DHT22;2256;48.740;9.106;2023-02-19T05:10:39;8.80;99.90
4487;DHT22;2256;48.740;9.106;2023-02-19T05:13:06;8.80;99.90
4487;DHT22;2256;48.740;9.106;2023-02-19T05:15:32;8.80;99.90
4487;DHT22;2256;48.740;9.106;2023-02-19T05:17:59;8.80;99.90
4487;DHT22;2256;48.740;9.106;2023-02-19T05:20:26;8.80;99.90
4487;DHT22;2256;48.740;9.106;2023-02-19T05:22:53;8.80;99.90
4487;DHT22;2256;48.740;9.106;2023-02-19T05:25:19;8.80;99.90
4487;DHT22;2256;48.740;9.106;2023-02-19T05:27:48;8.80;99.90
4487;DHT22;2256;48.740;9.106;2023-02-19T05:30:35;8.80;99.90
4487;DHT22;2256;48.740;9.106;2023-02-19T05:33:01;8.90;99.90
4487;DHT22;2256;48.740;9.106;2023-02-19T05:35:28;8.90;99.90
4487;DHT22;2256;48.740;9.106;2023-02-19T05:37:55;8.90;99.90
4487;DHT22;2256;48.740;9.106;2023-02-19T05:40:22;8.90;99.90
4487;DHT22;2256;48.740;9.106;2023-02-19T05:42:50;8.90;99.90
4487;DHT22;2256;48.740;9.106;2023-02-19T05:45:16;8.90;99.90
4487;DHT22;2256;48.740;9.106;2023-02-19T05:47:43;8.80;99.90
4487;DHT22;2256;48.740;9.106;2023-02-19T05:50:10;8.80;99.90
4487;DHT22;2256;48.740;9.106;2023-02-19T05:52:36;8.80;99.90
4487;DHT22;2256;48.740;9.106;2023-02-19T05:55:04;8.80;99.90
4487;DHT22;2256;48.740;9.106;2023-02-19T05:57:31;8.80;99.90
4487;DHT22;2256;48.740;9.106;2023-02-19T05:59:59;8.80;99.90
4487;DHT22;2256;48.740;9.106;2023-02-19T06:02:25;8.90;99.90
4487;DHT22;2256;48.740;9.106;2023-02-19T06:04:52;8.80;99.90
4487;DHT22;2256;48.740;9.106;2023-02-19T06:07:19;8.80;99.90
4487;DHT22;2256;48.740;9.106;2023-02-19T06:09:49;8.80;99.90
4487;DHT22;2256;48.740;9.106;2023-02-19T06:12:15;8.80;99.90
4487;DHT22;2256;48.740;9.106;2023-02-19T06:14:42;8.80;99.90
4487;DHT22;2256;48.740;9.106;2023-02-19T06:17:10;8.90;99.90
4487;DHT22;2256;48.740;9.106;2023-02-19T06:19:37;8.80;99.90
4487;DHT22;2256;48.740;9.106;2023-02-19T06:22:04;8.80;99.90
4487;DHT22;2256;48.740;9.106;2023-02-19T06:24:31;8.70;99.90
4487;DHT22;2256;48.740;9.106;2023-02-19T06:26:57;8.60;99.90
4487;DHT22;2256;48.740;9.106;2023-02-19T06:29:25;8.60;99.90
4487;DHT22;2256;48.740;9.106;2023-02-19T06:31:51;8.50;99.90
4487;DHT22;2256;48.740;9.106;2023-02-19T06:34:19;8.50;99.90
4487;DHT22;2256;48.740;9.106;2023-02-19T06:36:48;8.50;99.90
4487;DHT22;2256;48.740;9.106;2023-02-19T06:39:15;8.50;99.90
4487;DHT22;2256;48.740;9.106;2023-02-19T06:41:42;8.40;99.90
4487;DHT22;2256;48.740;9.106;2023-02-19T06:44:08;8.50;99.90
4487;DHT22;2256;48.740;9.106;2023-02-19T06:46:36;8.50;99.90
4487;DHT22;2256;48.740;9.106;2023-02-19T06:49:03;8.40;99.90
4487;DHT22;2256;48.740;9.106;2023-02-19T06:51:31;8.40;99.90
4487;DHT22;2256;48.740;9.106;2023-02-19T06:53:58;8.40;99.90
4487;DHT22;2256;48.740;9.106;2023-02-19T06:56:27;8.50;99.90
4487;DHT22;2256;48.740;9.106;2023-02-19T06:58:56;8.40;99.90
4487;DHT22;2256;48.740;9.106;2023-02-19T07:01:24;8.50;99.90
4487;DHT22;2256;48.740;9.106;2023-02-19T07:03:51;8.50;99.90
4487;DHT22;2256;48.740;9.106;2023-02-19T07:06:19;8.40;99.90
4487;DHT22;2256;48.740;9.106;2023-02-19T07:08:47;8.50;99.90
4487;DHT22;2256;48.740;9.106;2023-02-19T07:11:14;8.50;99.90
4487;DHT22;2256;48.740;9.106;2023-02-19T07:13:41;8.50;99.90
4487;DHT22;2256;48.740;9.106;2023-02-19T07:16:09;8.70;99.90
4487;DHT22;2256;48.740;9.106;2023-02-19T07:18:38;8.60;99.90
4487;DHT22;2256;48.740;9.106;2023-02-19T07:21:06;8.50;99.90
4487;DHT22;2256;48.740;9.106;2023-02-19T07:23:34;8.50;99.90
4487;DHT22;2256;48.740;9.106;2023-02-19T07:26:02;8.60;99.90
4487;DHT22;2256;48.740;9.106;2023-02-19T07:28:29;8.70;99.90
4487;DHT22;2256;48.740;9.106;2023-02-19T07:30:59;8.80;99.90
4487;DHT22;2256;48.740;9.106;2023-02-19T07:33:26;8.70;99.90
4487;DHT22;2256;48.740;9.106;2023-02-19T07:35:53;8.70;99.90
4487;DHT22;2256;48.740;9.106;2023-02-19T07:38:22;8.70;99.90
4487;DHT22;2256;48.740;9.106;2023-02-19T07:40:52;8.60;99.90
4487;DHT22;2256;48.740;9.106;2023-02-19T07:43:20;8.60;99.90
4487;DHT22;2256;48.740;9.106;2023-02-19T07:45:48;8.60;99.90
4487;DHT22;2256;48.740;9.106;2023-02-19T07:48:16;8.60;99.90
4487;DHT22;2256;48.740;9.106;2023-02-19T07:50:50;8.70;99.90
4487;DHT22;2256;48.740;9.106;2023-02-19T07:53:17;8.70;99.90
4487;DHT22;2256;48.740;9.106;2023-02-19T07:55:45;8.80;99.90
4487;DHT22;2256;48.740;9.106;2023-02-19T07:58:11;8.90;99.90
4487;DHT22;2256;48.740;9.106;2023-02-19T08:00:39;8.90;99.90
4487;DHT22;2256;48.740;9.106;2023-02-19T08:03:06;8.90;99.90
4487;DHT22;2256;48.740;9.106;2023-02-19T08:05:33;9.00;99.90
4487;DHT22;2256;48.740;9.106;2023-02-19T08:08:02;9.20;99.90
4487;DHT22;2256;48.740;9.106;2023-02-19T08:10:30;9.40;99.90
4487;DHT22;2256;48.740;9.106;2023-02-19T08:13:15;9.50;99.90
4487;DHT22;2256;48.740;9.106;2023-02-19T08:15:49;9.60;99.90
4487;DHT22;2256;48.740;9.106;2023-02-19T08:18:17;9.70;99.90
4487;DHT22;2256;48.740;9.106;2023-02-19T08:20:44;9.70;99.90
4487;DHT22;2256;48.740;9.106;2023-02-19T08:23:12;9.80;99.90
4487;DHT22;2256;48.740;9.106;2023-02-19T08:25:39;9.90;99.90
4487;DHT22;2256;48.740;9.106;2023-02-19T08:28:07;9.90;99.90
4487;DHT22;2256;48.740;9.106;2023-02-19T08:30:35;9.90;99.90
4487;DHT22;2256;48.740;9.106;2023-02-19T08:33:05;9.80;99.90
4487;DHT22;2256;48.740;9.106;2023-02-19T08:35:33;9.60;99.90
4487;DHT22;2256;48.740;9.106;2023-02-19T08:38:01;9.60;99.90
4487;DHT22;2256;48.740;9.106;2023-02-19T08:40:28;9.60;99.90
4487;DHT22;2256;48.740;9.106;2023-02-19T08:42:55;9.50;99.90
4487;DHT22;2256;48.740;9.106;2023-02-19T08:45:27;9.40;99.90
4487;DHT22;2256;48.740;9.106;2023-02-19T08:47:53;9.50;99.90
4487;DHT22;2256;48.740;9.106;2023-02-19T08:50:21;9.60;99.90
4487;DHT22;2256;48.740;9.106;2023-02-19T08:52:48;9.70;99.90
4487;DHT22;2256;48.740;9.106;2023-02-19T08:55:15;9.70;99.90
4487;DHT22;2256;48.740;9.106;2023-02-19T08:57:42;9.80;99.90
4487;DHT22;2256;48.740;9.106;2023-02-19T09:00:10;9.80;99.90
4487;DHT22;2256;48.740;9.106;2023-02-19T09:02:37;9.70;99.90
4487;DHT22;2256;48.740;9.106;2023-02-19T09:05:04;9.60;99.90
4487;DHT22;2256;48.740;9.106;2023-02-19T09:07:33;9.50;99.90
4487;DHT22;2256;48.740;9.106;2023-02-19T09:10:00;9.60;99.90
4487;DHT22;2256;48.740;9.106;2023-02-19T09:12:26;9.60;99.90
4487;DHT22;2256;48.740;9.106;2023-02-19T09:14:53;9.70;99.90
4487;DHT22;2256;48.740;9.106;2023-02-19T09:17:20;9.70;99.90
4487;DHT22;2256;48.740;9.106;2023-02-19T09:19:47;9.70;99.90
4487;DHT22;2256;48.740;9.106;2023-02-19T09:22:14;9.70;99.90
4487;DHT22;2256;48.740;9.106;2023-02-19T09:24:43;9.80;99.90
4487;DHT22;2256;48.740;9.106;2023-02-19T09:27:14;9.80;99.90
4487;DHT22;2256;48.740;9.106;2023-02-19T09:29:42;9.80;99.90
4487;DHT22;2256;48.740;9.106;2023-02-19T09:32:09;9.80;99.90
4487;DHT22;2256;48.740;9.106;2023-02-19T09:34:37;9.70;99.90
4487;DHT22;2256;48.740;9.106;2023-02-19T09:37:04;9.90;99.90
4487;DHT22;2256;48.740;9.106;2023-02-19T09:39:31;9.90;99.90
4487;DHT22;2256;48.740;9.106;2023-02-19T09:42:02;10.10;99.90
4487;DHT22;2256;48.740;9.106;2023-02-19T09:44:32;10.10;99.90
4487;DHT22;2256;48.740;9.106;2023-02-19T09:47:00;10.10;99.90
4487;DHT22;2256;48.740;9.106;2023-02-19T09:49:31;10.20;99.90
4487;DHT22;2256;48.740;9.106;2023-02-19T09:52:02;10.20;99.90
4487;DHT22;2256;48.740;9.106;2023-02-19T09:54:33;10.30;99.90
4487;DHT22;2256;48.740;9.106;2023-02-19T09:57:03;10.40;99.90
4487;DHT22;2256;48.740;9.106;2023-02-19T09:59:34;10.50;99.90
4487;DHT22;2256;48.740;9.106;2023-02-19T10:02:06;10.50;99.90
4487;DHT22;2256;48.740;9.106;2023-02-19T10:04:37;10.40;99.90
4487;DHT22;2256;48.740;9.106;2023-02-19T10:07:10;10.50;99.90
4487;DHT22;2256;48.740;9.106;2023-02-19T10:09:38;10.50;99.90
4487;DHT22;2256;48.740;9.106;2023-02-19T10:12:12;10.50;99.90
4487;DHT22;2256;48.740;9.106;2023-02-19T10:14:42;10.60;99.90
4487;DHT22;2256;48.740;9.106;2023-02-19T10:17:17;10.70;99.90
4487;DHT22;2256;48.740;9.106;2023-02-19T10:19:45;10.70;99.90
4487;DHT22;2256;48.740;9.106;2023-02-19T10:22:12;10.50;99.90
4487;DHT22;2256;48.740;9.106;2023-02-19T10:24:40;10.50;99.90
4487;DHT22;2256;48.740;9.106;2023-02-19T10:27:12;10.50;99.90
4487;DHT22;2256;48.740;9.106;2023-02-19T10:29:39;10.50;99.90
4487;DHT22;2256;48.740;9.106;2023-02-19T10:32:12;10.50;99.90
4487;DHT22;2256;48.740;9.106;2023-02-19T10:34:41;10.50;99.90
4487;DHT22;2256;48.740;9.106;2023-02-19T10:37:11;10.80;99.90
4487;DHT22;2256;48.740;9.106;2023-02-19T10:39:41;10.90;99.90
4487;DHT22;2256;48.740;9.106;2023-02-19T10:42:21;10.90;99.90
4487;DHT22;2256;48.740;9.106;2023-02-19T10:44:52;11.00;99.90
4487;DHT22;2256;48.740;9.106;2023-02-19T10:47:21;11.10;99.90
4487;DHT22;2256;48.740;9.106;2023-02-19T10:49:50;11.00;99.90
4487;DHT22;2256;48.740;9.106;2023-02-19T10:52:20;11.00;99.90
4487;DHT22;2256;48.740;9.106;2023-02-19T10:54:50;10.80;99.90
4487;DHT22;2256;48.740;9.106;2023-02-19T10:57:27;10.90;99.90
4487;DHT22;2256;48.740;9.106;2023-02-19T11:00:00;10.80;99.90
4487;DHT22;2256;48.740;9.106;2023-02-19T11:02:29;10.80;99.90
4487;DHT22;2256;48.740;9.106;2023-02-19T11:05:21;10.90;99.90
4487;DHT22;2256;48.740;9.106;2023-02-19T11:07:50;11.00;99.90
4487;DHT22;2256;48.740;9.106;2023-02-19T11:10:26;11.10;99.90
4487;DHT22;2256;48.740;9.106;2023-02-19T11:12:57;11.10;99.90
4487;DHT22;2256;48.740;9.106;2023-02-19T11:15:26;11.30;99.90
4487;DHT22;2256;48.740;9.106;2023-02-19T11:17:55;11.30;99.90
4487;DHT22;2256;48.740;9.106;2023-02-19T11:20:23;11.40;99.90
4487;DHT22;2256;48.740;9.106;2023-02-19T11:22:50;11.50;99.90
4487;DHT22;2256;48.740;9.106;2023-02-19T11:25:23;11.70;99.90
4487;DHT22;2256;48.740;9.106;2023-02-19T11:27:56;11.80;99.90
4487;DHT22;2256;48.740;9.106;2023-02-19T11:30:36;11.80;99.90
4487;DHT22;2256;48.740;9.106;2023-02-19T11:33:33;11.90;99.90
4487;DHT22;2256;48.740;9.106;2023-02-19T11:36:25;11.60;99.90
4487;DHT22;2256;48.740;9.106;2023-02-19T11:38:53;11.60;99.90
4487;DHT22;2256;48.740;9.106;2023-02-19T11:41:28;11.70;99.90
4487;DHT22;2256;48.740;9.106;2023-02-19T11:44:13;11.60;99.90
4487;DHT22;2256;48.740;9.106;2023-02-19T11:46:45;11.50;99.90
4487;DHT22;2256;48.740;9.106;2023-02-19T11:49:25;11.40;99.90
4487;DHT22;2256;48.740;9.106;2023-02-19T11:52:07;11.40;99.90
4487;DHT22;2256;48.740;9.106;2023-02-19T11:54:45;11.30;99.90
4487;DHT22;2256;48.740;9.106;2023-02-19T11:57:23;11.30;99.90
4487;DHT22;2256;48.740;9.106;2023-02-19T12:00:02;11.40;99.90
4487;DHT22;2256;48.740;9.106;2023-02-19T12:03:08;11.40;99.90
4487;DHT22;2256;48.740;9.106;2023-02-19T12:05:48;11.60;99.90
4487;DHT22;2256;48.740;9.106;2023-02-19T12:08:32;11.70;99.90
4487;DHT22;2256;48.740;9.106;2023-02-19T12:11:11;11.70;99.90
4487;DHT22;2256;48.740;9.106;2023-02-19T12:13:54;11.50;99.90
4487;DHT22;2256;48.740;9.106;2023-02-19T12:16:32;11.40;99.90
4487;DHT22;2256;48.740;9.106;2023-02-19T12:19:17;11.40;99.90
4487;DHT22;2256;48.740;9.106;2023-02-19T12:22:03;11.30;99.90
4487;DHT22;2256;48.740;9.106;2023-02-19T12:24:48;11.40;99.90
4487;DHT22;2256;48.740;9.106;2023-02-19T12:27:26;11.40;99.90
4487;DHT22;2256;48.740;9.106;2023-02-19T12:30:14;11.40;99.90
4487;DHT22;2256;48.740;9.106;2023-02-19T12:33:08;11.40;99.90
4487;DHT22;2256;48.740;9.106;2023-02-19T12:35:45;11.40;99.90
4487;DHT22;2256;48.740;9.106;2023-02-19T12:38:20;11.60;99.90
4487;DHT22;2256;48.740;9.106;2023-02-19T12:41:02;11.90;99.90
4487;DHT22;2256;48.740;9.106;2023-02-19T12:43:35;12.10;99.90
4487;DHT22;2256;48.740;9.106;2023-02-19T12:46:06;12.20;99.90
4487;DHT22;2256;48.740;9.106;2023-02-19T12:48:41;12.30;99.90
4487;DHT22;2256;48.740;9.106;2023-02-19T12:51:16;12.50;99.90
4487;DHT22;2256;48.740;9.106;2023-02-19T12:53:48;12.40;99.90
4487;DHT22;2256;48.740;9.106;2023-02-19T12:56:21;12.20;99.90
4487;DHT22;2256;48.740;9.106;2023-02-19T12:58:52;12.00;99.90
4487;DHT22;2256;48.740;9.106;2023-02-19T13:01:24;12.00;99.90
4487;DHT22;2256;48.740;9.106;2023-02-19T13:04:13;12.00;99.90
4487;DHT22;2256;48.740;9.106;2023-02-19T13:06:45;12.20;99.90
4487;DHT22;2256;48.740;9.106;2023-02-19T13:09:16;12.50;99.90
4487;DHT22;2256;48.740;9.106;2023-02-19T13:11:48;12.60;99.90
4487;DHT22;2256;48.740;9.106;2023-02-19T13:14:20;12.50;99.90
4487;DHT22;2256;48.740;9.106;2023-02-19T13:16:53;12.50;99.90
4487;DHT22;2256;48.740;9.106;2023-02-19T13:19:22;12.30;99.90
4487;DHT22;2256;48.740;9.106;2023-02-19T13:21:54;12.30;99.90
4487;DHT22;2256;48.740;9.106;2023-02-19T13:24:53;12.10;99.90
4487;DHT22;2256;48.740;9.106;2023-02-19T13:27:40;11.90;99.90
4487;DHT22;2256;48.740;9.106;2023-02-19T13:30:27;11.90;99.90
4487;DHT22;2256;48.740;9.106;2023-02-19T13:33:05;11.90;99.90
4487;DHT22;2256;48.740;9.106;2023-02-19T13:36:09;11.90;99.90
4487;DHT22;2256;48.740;9.106;2023-02-19T13:38:40;11.80;99.90
4487;DHT22;2256;48.740;9.106;2023-02-19T13:41:20;11.60;99.90
4487;DHT22;2256;48.740;9.106;2023-02-19T13:43:57;11.30;99.90
4487;DHT22;2256;48.740;9.106;2023-02-19T13:46:32;11.10;99.90
4487;DHT22;2256;48.740;9.106;2023-02-19T13:52:42;10.90;99.90
4487;DHT22;2256;48.740;9.106;2023-02-19T14:04:50;11.00;99.90
4487;DHT22;2256;48.740;9.106;2023-02-19T14:07:50;11.10;99.90
4487;DHT22;2256;48.740;9.106;2023-02-19T14:13:54;11.30;99.90
4487;DHT22;2256;48.740;9.106;2023-02-19T14:16:30;11.20;99.90
4487;DHT22;2256;48.740;9.106;2023-02-19T14:18:57;11.20;99.90
4487;DHT22;2256;48.740;9.106;2023-02-19T14:21:33;11.30;99.90
4487;DHT22;2256;48.740;9.106;2023-02-19T14:24:02;11.30;99.90
4487;DHT22;2256;48.740;9.106;2023-02-19T14:26:31;11.20;99.90
4487;DHT22;2256;48.740;9.106;2023-02-19T14:28:59;11.20;99.90
4487;DHT22;2256;48.740;9.106;2023-02-19T14:31:28;11.10;99.90
4487;DHT22;2256;48.740;9.106;2023-02-19T14:33:58;11.20;99.90
4487;DHT22;2256;48.740;9.106;2023-02-19T14:36:35;11.20;99.90
4487;DHT22;2256;48.740;9.106;2023-02-19T14:39:11;11.10;99.90
4487;DHT22;2256;48.740;9.106;2023-02-19T14:41:41;11.20;99.90
4487;DHT22;2256;48.740;9.106;2023-02-19T14:44:14;11.10;99.90
4487;DHT22;2256;48.740;9.106;2023-02-19T14:46:48;11.10;99.90
4487;DHT22;2256;48.740;9.106;2023-02-19T14:49:20;11.20;99.90
4487;DHT22;2256;48.740;9.106;2023-02-19T14:51:51;11.10;99.90
4487;DHT22;2256;48.740;9.106;2023-02-19T14:54:38;11.10;99.90
4487;DHT22;2256;48.740;9.106;2023-02-19T14:57:13;11.00;99.90
4487;DHT22;2256;48.740;9.106;2023-02-19T14:59:51;10.80;99.90
4487;DHT22;2256;48.740;9.106;2023-02-19T15:02:19;10.70;99.90
4487;DHT22;2256;48.740;9.106;2023-02-19T15:04:46;10.70;99.90
4487;DHT22;2256;48.740;9.106;2023-02-19T15:07:17;10.70;99.90
4487;DHT22;2256;48.740;9.106;2023-02-19T15:09:48;10.70;99.90
4487;DHT22;2256;48.740;9.106;2023-02-19T15:12:19;10.70;99.90
4487;DHT22;2256;48.740;9.106;2023-02-19T15:14:48;10.50;99.90
4487;DHT22;2256;48.740;9.106;2023-02-19T15:17:20;10.50;99.90
4487;DHT22;2256;48.740;9.106;2023-02-19T15:19:50;10.50;99.90
4487;DHT22;2256;48.740;9.106;2023-02-19T15:22:19;10.50;99.90
4487;DHT22;2256;48.740;9.106;2023-02-19T15:24:48;10.50;99.90
4487;DHT22;2256;48.740;9.106;2023-02-19T15:27:17;10.60;99.90
4487;DHT22;2256;48.740;9.106;2023-02-19T15:29:45;10.50;99.90
4487;DHT22;2256;48.740;9.106;2023-02-19T15:32:16;10.50;99.90
4487;DHT22;2256;48.740;9.106;2023-02-19T15:34:52;10.50;99.90
4487;DHT22;2256;48.740;9.106;2023-02-19T15:37:20;10.40;99.90
4487;DHT22;2256;48.740;9.106;2023-02-19T15:39:50;10.30;99.90
4487;DHT22;2256;48.740;9.106;2023-02-19T15:42:19;10.20;99.90
4487;DHT22;2256;48.740;9.106;2023-02-19T15:44:51;10.20;99.90
4487;DHT22;2256;48.740;9.106;2023-02-19T15:47:23;10.10;99.90
4487;DHT22;2256;48.740;9.106;2023-02-19T15:49:55;10.00;99.90
4487;DHT22;2256;48.740;9.106;2023-02-19T15:52:30;10.00;99.90
4487;DHT22;2256;48.740;9.106;2023-02-19T15:55:06;9.90;99.90
4487;DHT22;2256;48.740;9.106;2023-02-19T15:57:36;9.80;99.90
4487;DHT22;2256;48.740;9.106;2023-02-19T16:00:09;9.80;99.90
4487;DHT22;2256;48.740;9.106;2023-02-19T16:02:38;9.80;99.90
4487;DHT22;2256;48.740;9.106;2023-02-19T16:05:11;9.70;99.90
4487;DHT22;2256;48.740;9.106;2023-02-19T16:07:38;9.60;99.90
4487;DHT22;2256;48.740;9.106;2023-02-19T16:10:18;9.70;99.90
4487;DHT22;2256;48.740;9.106;2023-02-19T16:12:54;9.70;99.90
4487;DHT22;2256;48.740;9.106;2023-02-19T16:15:21;9.60;99.90
4487;DHT22;2256;48.740;9.106;2023-02-19T16:17:48;9.60;99.90
4487;DHT22;2256;48.740;9.106;2023-02-19T16:20:19;9.50;99.90
4487;DHT22;2256;48.740;9.106;2023-02-19T16:22:46;9.50;99.90
4487;DHT22;2256;48.740;9.106;2023-02-19T16:25:25;9.40;99.90
4487;DHT22;2256;48.740;9.106;2023-02-19T16:27:52;9.50;99.90
4487;DHT22;2256;48.740;9.106;2023-02-19T16:30:27;9.50;99.90
4487;DHT22;2256;48.740;9.106;2023-02-19T16:36:14;9.50;99.90
4487;DHT22;2256;48.740;9.106;2023-02-19T16:39:03;9.40;99.90
4487;DHT22;2256;48.740;9.106;2023-02-19T16:44:42;9.30;99.90
4487;DHT22;2256;48.740;9.106;2023-02-19T16:49:57;9.00;99.90
4487;DHT22;2256;48.740;9.106;2023-02-19T16:52:24;8.90;99.90
4487;DHT22;2256;48.740;9.106;2023-02-19T16:54:51;8.90;99.90
4487;DHT22;2256;48.740;9.106;2023-02-19T16:57:19;8.80;99.90
4487;DHT22;2256;48.740;9.106;2023-02-19T16:59:46;8.80;99.90
4487;DHT22;2256;48.740;9.106;2023-02-19T17:02:17;8.80;99.90
4487;DHT22;2256;48.740;9.106;2023-02-19T17:04:45;9.00;99.90
4487;DHT22;2256;48.740;9.106;2023-02-19T17:07:13;8.80;99.90